Overview Statistics Trail Chart Weather Telemetry Raw packets
 

This is the latest recevied weather packets stored in our database for station/object LU1MQF-10. If no packets are shown the sender has not sent any weather packets the latest 10 day(s).

<< 15 16 17 18 19 20 21 >>
Time Temp. Humidity Pressure Rain* Wind** Luminosity Snow
1777855736 21.11° C 30% 1015.7 hPa - - - -
1777855732 21.11° C 30% 1015.7 hPa - - - -
1777854836 21.11° C 30% 1015.5 hPa - - - -
1777854832 21.11° C 30% 1015.5 hPa - - - -
1777853936 21.67° C 30% 1015.5 hPa - - - -
1777853932 21.67° C 30% 1015.5 hPa - - - -
1777853036 23.33° C 27% 1015.6 hPa - - - -
1777853031 23.33° C 27% 1015.6 hPa - - - -
1777852135 22.78° C 28% 1015.5 hPa - - - -
1777852131 22.78° C 28% 1015.5 hPa - - - -
1777851235 22.78° C 27% 1015.6 hPa - - - -
1777851231 22.78° C 27% 1015.6 hPa - - - -
1777850335 22.22° C 27% 1015.8 hPa - - - -
1777850331 22.22° C 27% 1015.8 hPa - - - -
1777849435 22.78° C 27% 1016.1 hPa - - - -
1777849431 22.78° C 27% 1016.1 hPa - - - -
1777848535 22.22° C 26% 1016 hPa - - - -
1777848531 22.22° C 26% 1016 hPa - - - -
1777847634 21.67° C 27% 1015.9 hPa - - - -
1777847630 21.67° C 27% 1015.9 hPa - - - -
1777846734 20.56° C 28% 1015.6 hPa - - - -
1777846730 20.56° C 28% 1015.6 hPa - - - -
1777845835 19.44° C 28% 1015.7 hPa - - - -
1777845830 19.44° C 28% 1015.7 hPa - - - -
1777844935 18.33° C 30% 1015.3 hPa - - - -

* Rain since midnight (hover to see other rain measurements)
** Current wind speed in m/s (hover to see current wind gust speed)